Time;durP1;ratioP1;P1;durP2;ratioP2;P2;SDS_P1;SDS_P2;PMS_P1;PMS_P2;Temp;Humidity;BMP_temperature;BMP_pressure;BME280_temperature;BME280_humidity;BME280_pressure;Samples;Min_cycle;Max_cycle;Signal;HPM_P1;HPM_P2
2021/10/24 00:03:09;;;;;;;6.07;2.55;;;18.90;59.40;;;;;;10373484;28;20112;-47
2021/10/24 00:08:10;;;;;;;4.22;2.35;;;18.90;59.40;;;;;;10373171;28;20484;-50
2021/10/24 00:13:11;;;;;;;4.47;2.30;;;18.90;59.40;;;;;;10373005;28;20058;-52
2021/10/24 00:18:11;;;;;;;3.80;1.55;;;18.90;59.40;;;;;;10373035;28;20022;-51
2021/10/24 00:23:14;;;;;;;5.30;2.50;;;18.90;59.30;;;;;;10372649;28;20033;-50
2021/10/24 00:28:14;;;;;;;4.55;2.20;;;18.80;59.20;;;;;;10373171;28;20029;-50
2021/10/24 00:33:15;;;;;;;3.08;1.30;;;18.80;59.10;;;;;;10372072;28;20054;-49
2021/10/24 00:38:15;;;;;;;4.18;1.67;;;18.80;59.10;;;;;;10371986;28;20026;-50
2021/10/24 00:43:16;;;;;;;4.20;1.80;;;18.80;59.00;;;;;;10374267;28;20026;-51
2021/10/24 00:48:17;;;;;;;6.55;2.03;;;18.80;59.00;;;;;;10371482;28;20045;-51
2021/10/24 00:53:18;;;;;;;5.03;1.80;;;18.80;59.00;;;;;;10371152;28;20026;-48
2021/10/24 00:58:19;;;;;;;2.72;1.70;;;18.70;58.80;;;;;;10371391;28;20026;-52
2021/10/24 01:03:20;;;;;;;5.50;1.88;;;18.70;58.70;;;;;;10371266;28;20018;-52
2021/10/24 01:08:20;;;;;;;2.53;1.35;;;18.70;58.60;;;;;;10398262;22;20120;-54
2021/10/24 01:13:21;;;;;;;4.82;1.98;;;18.70;58.80;;;;;;10383139;28;20033;-52
2021/10/24 01:18:22;;;;;;;4.65;1.52;;;18.70;58.60;;;;;;10357358;28;20049;-52
2021/10/24 01:23:24;;;;;;;5.55;2.75;;;18.70;58.70;;;;;;10337867;28;20038;-51
2021/10/24 01:28:25;;;;;;;3.05;2.03;;;18.60;58.50;;;;;;10333926;28;20455;-48
2021/10/24 01:33:27;;;;;;;3.45;1.70;;;18.60;58.50;;;;;;10329024;28;20026;-52
2021/10/24 01:38:29;;;;;;;4.13;1.38;;;18.60;58.60;;;;;;10329084;28;20094;-53
2021/10/24 01:43:29;;;;;;;3.10;1.58;;;18.60;58.50;;;;;;10340617;28;20014;-50
2021/10/24 01:48:30;;;;;;;4.03;2.08;;;18.60;58.40;;;;;;10328693;28;20026;-53
2021/10/24 01:53:35;;;;;;;5.30;2.03;;;18.50;58.30;;;;;;10328313;28;20030;-52
2021/10/24 01:58:36;;;;;;;5.95;2.00;;;18.50;58.50;;;;;;10328353;28;20026;-48
2021/10/24 02:03:36;;;;;;;3.08;1.65;;;18.50;58.30;;;;;;10328170;28;20038;-49
2021/10/24 02:08:37;;;;;;;3.17;1.55;;;18.50;58.30;;;;;;10327970;28;20461;-56
2021/10/24 02:13:37;;;;;;;3.22;1.58;;;18.50;58.40;;;;;;10326676;28;20550;-52
2021/10/24 02:18:38;;;;;;;3.92;1.67;;;18.50;58.30;;;;;;10330123;28;20077;-50
2021/10/24 02:23:38;;;;;;;2.42;1.50;;;18.40;58.00;;;;;;10327861;28;20056;-50
2021/10/24 02:28:39;;;;;;;3.25;1.60;;;18.40;58.10;;;;;;10327915;28;20455;-49
2021/10/24 02:33:39;;;;;;;2.80;1.40;;;18.40;58.10;;;;;;10327367;28;20117;-51
2021/10/24 02:38:40;;;;;;;2.70;1.30;;;18.40;58.00;;;;;;10328331;28;20428;-52
2021/10/24 02:43:40;;;;;;;3.72;1.95;;;18.40;58.10;;;;;;10327250;28;20058;-52
2021/10/24 02:48:41;;;;;;;4.35;1.40;;;18.40;57.80;;;;;;10327309;28;20022;-48
2021/10/24 02:53:41;;;;;;;2.90;1.35;;;18.40;57.80;;;;;;10326939;28;20493;-49
2021/10/24 02:58:42;;;;;;;3.45;2.00;;;18.30;57.90;;;;;;10334527;28;20031;-50
2021/10/24 03:03:43;;;;;;;5.80;1.73;;;18.30;57.90;;;;;;10335011;28;20040;-51
2021/10/24 03:08:43;;;;;;;4.65;1.70;;;18.40;57.70;;;;;;10334783;28;20046;-50
2021/10/24 03:13:44;;;;;;;4.22;1.58;;;18.30;57.50;;;;;;10334345;28;20042;-50
2021/10/24 03:18:44;;;;;;;3.38;1.17;;;18.30;57.60;;;;;;10334561;28;20019;-50
2021/10/24 03:23:45;;;;;;;5.97;1.73;;;18.30;57.40;;;;;;10346292;28;20531;-48
2021/10/24 03:28:45;;;;;;;8.82;2.80;;;18.40;57.40;;;;;;10334053;28;20030;-53
2021/10/24 03:33:46;;;;;;;3.13;1.17;;;18.30;57.30;;;;;;10333448;28;20062;-54
2021/10/24 03:38:47;;;;;;;9.90;1.55;;;18.30;57.30;;;;;;10348351;28;20046;-50
2021/10/24 03:43:48;;;;;;;7.97;2.38;;;18.30;57.30;;;;;;10339075;28;20042;-50
2021/10/24 03:48:48;;;;;;;4.97;1.83;;;18.30;57.30;;;;;;10359274;28;20061;-52
2021/10/24 03:53:49;;;;;;;3.13;1.45;;;18.30;57.30;;;;;;10340224;28;20729;-52
2021/10/24 03:58:49;;;;;;;4.32;1.50;;;18.30;57.20;;;;;;10358375;28;20105;-54
2021/10/24 04:03:50;;;;;;;5.90;2.13;;;18.30;57.30;;;;;;10341649;28;20572;-53
2021/10/24 04:08:50;;;;;;;8.48;2.17;;;18.20;57.20;;;;;;10347560;28;20408;-53
2021/10/24 04:13:51;;;;;;;4.97;1.55;;;18.20;57.30;;;;;;10342695;28;20033;-55
2021/10/24 04:18:51;;;;;;;5.35;1.83;;;18.30;57.40;;;;;;10345163;28;20403;-55
2021/10/24 04:23:52;;;;;;;3.65;1.60;;;18.20;57.20;;;;;;10334080;28;20023;-52
2021/10/24 04:28:52;;;;;;;4.75;1.40;;;18.20;57.30;;;;;;10353310;28;20052;-52
2021/10/24 04:33:53;;;;;;;3.30;1.40;;;18.20;57.40;;;;;;10335354;28;20026;-53
2021/10/24 04:38:54;;;;;;;2.95;0.93;;;18.20;57.40;;;;;;10355952;28;20041;-51
2021/10/24 09:40:28;;;;;;;;;;;20.40;54.40;;;;;;1011011;27;20004;-58
2021/10/24 09:40:59;;;;;;;;;;;21.10;52.90;;;;;;1039657;28;19956;-54
2021/10/24 09:41:30;;;;;;;;;;;21.00;52.80;;;;;;1039677;28;20427;-58
2021/10/24 09:42:09;;;;;;;;;;;21.00;52.80;;;;;;1039640;28;19956;-55
2021/10/24 09:42:40;;;;;;;;;;;21.00;52.80;;;;;;1039531;28;20043;-56
2021/10/24 09:43:13;;;;;;;;;;;21.00;52.80;;;;;;1039663;28;19956;-57
2021/10/24 09:43:44;;;;;;;;;;;21.00;52.80;;;;;;1037470;28;19984;-52
2021/10/24 09:44:15;;;;;;;;;;;21.00;52.90;;;;;;1039701;28;20422;-55
2021/10/24 09:45:06;;;;;;;;;;;21.00;53.00;;;;;;1039470;28;20055;-59
2021/10/24 09:45:37;;;;;;;;;;;21.00;53.00;;;;;;1040259;28;20010;-59
2021/10/24 09:46:08;;;;;;;;;;;21.00;53.10;;;;;;1041063;28;19975;-57
2021/10/24 09:46:57;;;;;;;;;;;21.00;53.20;;;;;;1041421;28;19992;-56
2021/10/24 09:47:28;;;;;;;;;;;20.90;53.20;;;;;;1043339;28;19956;-53
2021/10/24 09:48:05;;;;;;;;;;;20.90;53.20;;;;;;1043057;28;20006;-58
2021/10/24 09:48:37;;;;;;;;;;;20.90;53.20;;;;;;1042378;28;20397;-58
2021/10/24 09:49:15;;;;;;;;;;;20.90;53.40;;;;;;1043438;28;19964;-55
2021/10/24 09:49:46;;;;;;;;;;;20.80;53.20;;;;;;1043384;28;19960;-56
2021/10/24 09:50:32;;;;;;;;;;;20.80;53.40;;;;;;1043458;28;19956;-57
2021/10/24 09:51:04;;;;;;;;;;;20.80;53.40;;;;;;1043738;28;19964;-56
2021/10/24 09:51:34;;;;;;;;;;;20.80;53.50;;;;;;1043962;28;19964;-58
2021/10/24 09:52:23;;;;;;;;;;;20.80;53.50;;;;;;1043781;28;20406;-60
2021/10/24 09:52:55;;;;;;;;;;;20.80;53.60;;;;;;1043919;28;19956;-58
2021/10/24 09:53:35;;;;;;;;;;;20.80;53.70;;;;;;1043666;28;19967;-59
2021/10/24 09:54:16;;;;;;;;;;;20.80;53.80;;;;;;1043851;28;19979;-55
2021/10/24 09:54:47;;;;;;;;;;;20.70;53.70;;;;;;1043803;28;20418;-60
2021/10/24 09:55:18;;;;;;;;;;;20.70;53.80;;;;;;1043752;28;19966;-59
2021/10/24 09:55:54;;;;;;;;;;;20.70;53.80;;;;;;1042958;28;20472;-61
2021/10/24 09:56:27;;;;;;;;;;;20.70;54.00;;;;;;1041105;28;20055;-56
2021/10/24 09:56:57;;;;;;;;;;;20.70;54.00;;;;;;1041071;28;20078;-58
2021/10/24 09:57:28;;;;;;;;;;;20.70;54.10;;;;;;1043640;28;19971;-58
2021/10/24 09:58:00;;;;;;;;;;;20.70;54.10;;;;;;1043320;28;19992;-60
2021/10/24 09:58:34;;;;;;;;;;;20.80;54.10;;;;;;1043688;28;19991;-56
2021/10/24 09:59:05;;;;;;;;;;;20.80;54.20;;;;;;1043852;28;20505;-57
2021/10/24 09:59:36;;;;;;;;;;;20.80;54.20;;;;;;1043535;28;20093;-60
2021/10/24 10:00:06;;;;;;;;;;;20.80;54.20;;;;;;1043633;28;20334;-58
2021/10/24 10:00:37;;;;;;;;;;;20.80;54.40;;;;;;1043829;28;19998;-59
2021/10/24 10:01:08;;;;;;;;;;;20.80;54.40;;;;;;1043892;28;20429;-57
2021/10/24 10:01:39;;;;;;;;;;;20.80;54.50;;;;;;1043495;28;19963;-60
2021/10/24 10:02:10;;;;;;;;;;;20.80;54.60;;;;;;985704;28;20415;-58
2021/10/24 10:02:41;;;;;;;;;;;20.80;54.70;;;;;;1051259;28;19988;-58
2021/10/24 10:03:12;;;;;;;;;;;20.80;54.80;;;;;;1051463;28;19958;-55
2021/10/24 10:03:43;;;;;;;;;;;20.90;54.90;;;;;;1051329;28;20061;-55
2021/10/24 10:04:14;;;;;;;;;;;20.90;54.90;;;;;;1047422;28;19955;-55
2021/10/24 10:04:45;;;;;;;;;;;20.80;54.90;;;;;;1043673;28;19956;-54
2021/10/24 10:05:16;;;;;;;;;;;20.80;55.00;;;;;;1043375;28;20089;-59
2021/10/24 10:05:46;;;;;;;;;;;20.80;55.10;;;;;;1045584;28;19983;-59
2021/10/24 10:06:18;;;;;;;;;;;20.80;55.20;;;;;;1046926;28;19959;-60
2021/10/24 10:06:50;;;;;;;;;;;20.80;55.20;;;;;;1047333;28;19991;-59
2021/10/24 10:07:22;;;;;;;;;;;20.80;55.30;;;;;;1049542;28;20648;-60
2021/10/24 10:07:52;;;;;;;;;;;20.80;55.50;;;;;;1050893;28;19965;-59
2021/10/24 10:08:23;;;;;;;;;;;20.80;55.50;;;;;;1048874;28;19956;-61
2021/10/24 10:08:53;;;;;;;;;;;20.80;55.40;;;;;;1051425;28;19959;-59
2021/10/24 10:09:24;;;;;;;;;;;20.80;55.50;;;;;;1051348;28;19952;-59
2021/10/24 10:09:55;;;;;;;;;;;20.80;55.60;;;;;;1051343;28;19955;-62
2021/10/24 10:10:27;;;;;;;;;;;20.80;55.70;;;;;;1048183;28;19955;-62
2021/10/24 10:10:58;;;;;;;;;;;20.80;55.80;;;;;;1050476;28;19951;-62
2021/10/24 10:11:31;;;;;;;;;;;20.80;55.80;;;;;;1051610;28;20050;-61
2021/10/24 10:12:03;;;;;;;;;;;20.80;55.80;;;;;;1051560;28;19955;-60
2021/10/24 10:12:35;;;;;;;;;;;20.80;55.90;;;;;;1051640;28;20340;-60
2021/10/24 10:13:09;;;;;;;;;;;20.80;55.90;;;;;;1051479;28;19955;-60
2021/10/24 10:13:44;;;;;;;;;;;20.80;56.10;;;;;;1051662;28;19956;-59
2021/10/24 10:14:16;;;;;;;;;;;20.70;55.90;;;;;;1051607;28;19952;-60
2021/10/24 10:14:51;;;;;;;;;;;20.70;56.00;;;;;;1047603;28;20006;-60
2021/10/24 10:15:22;;;;;;;;;;;20.70;55.90;;;;;;1046930;28;19974;-60
2021/10/24 10:15:53;;;;;;;;;;;20.70;55.90;;;;;;1042304;28;20015;-60
2021/10/24 10:16:50;;;;;;;;;;;20.70;55.80;;;;;;1041153;28;19956;-61
2021/10/24 10:17:22;;;;;;;;;;;20.70;56.00;;;;;;1039866;28;20401;-61
2021/10/24 10:17:56;;;;;;;;;;;20.70;56.00;;;;;;1043843;28;20322;-62
2021/10/24 10:18:26;;;;;;;;;;;20.70;56.00;;;;;;1042702;28;19959;-58
2021/10/24 10:18:56;;;;;;;;;;;20.70;55.90;;;;;;1043639;28;19990;-60
2021/10/24 10:19:29;;;;;;;;;;;20.70;55.90;;;;;;1043410;28;20047;-61
2021/10/24 10:20:19;;;;;;;;;;;20.80;56.00;;;;;;1043436;28;19952;-61
2021/10/24 10:20:51;;;;;;;;;;;20.80;56.10;;;;;;1042037;28;20587;-61
2021/10/24 10:21:25;;;;;;;;;;;20.80;56.00;;;;;;1043570;28;20090;-61
2021/10/24 10:21:56;;;;;;;;;;;20.80;55.90;;;;;;1043725;28;19952;-60
2021/10/24 10:22:30;;;;;;;;;;;20.80;55.90;;;;;;1043333;28;20007;-60
2021/10/24 10:23:08;;;;;;;;;;;20.70;55.90;;;;;;1043630;28;20341;-61
2021/10/24 10:23:39;;;;;;;;;;;20.70;56.00;;;;;;1043615;28;20043;-61
2021/10/24 10:24:30;;;;;;;;;;;20.70;56.00;;;;;;1043616;28;19956;-61
2021/10/24 10:25:02;;;;;;;;;;;20.70;56.00;;;;;;1042942;28;20078;-61
2021/10/24 10:25:33;;;;;;;;;;;20.80;56.00;;;;;;1043677;28;19952;-61
2021/10/24 10:26:22;;;;;;;;;;;20.70;56.00;;;;;;1040736;28;20002;-60
2021/10/24 10:26:54;;;;;;;;;;;20.70;56.00;;;;;;1043570;28;20369;-59
2021/10/24 10:27:27;;;;;;;;;;;20.70;56.00;;;;;;1028059;28;19952;-59
2021/10/24 10:27:58;;;;;;;;;;;20.70;56.00;;;;;;1042301;28;19952;-61
2021/10/24 10:28:45;;;;;;;;;;;20.70;56.00;;;;;;1043237;28;20043;-61
2021/10/24 10:29:35;;;;;;;;;;;20.70;56.00;;;;;;1043517;28;19964;-62
2021/10/24 10:30:14;;;;;;;;;;;20.70;56.00;;;;;;1042897;28;19956;-60
2021/10/24 10:30:45;;;;;;;;;;;20.70;56.10;;;;;;1040848;28;19960;-61
2021/10/24 10:31:16;;;;;;;;;;;20.70;56.10;;;;;;1043571;28;19952;-61
2021/10/24 10:32:05;;;;;;;;;;;20.60;56.10;;;;;;1043248;28;19963;-61
2021/10/24 10:32:37;;;;;;;;;;;20.60;56.10;;;;;;1043161;28;20385;-61
2021/10/24 10:33:26;;;;;;;;;;;20.70;56.30;;;;;;1043329;28;20410;-62
2021/10/24 10:33:57;;;;;;;;;;;20.60;56.20;;;;;;1043562;28;19952;-62
2021/10/24 10:34:28;;;;;;;;;;;20.70;56.10;;;;;;1043698;28;19952;-60
2021/10/24 10:34:59;;;;;;;;;;;20.60;55.90;;;;;;1043611;28;20567;-60
2021/10/24 10:35:30;;;;;;;;;;;20.70;55.80;;;;;;1043756;28;20375;-61
2021/10/24 10:36:02;;;;;;;;;;;20.60;55.70;;;;;;1041253;28;19952;-60
2021/10/24 10:36:44;;;;;;;;;;;20.70;55.70;;;;;;1040097;28;20324;-60
2021/10/24 10:37:34;;;;;;;;;;;20.60;55.50;;;;;;1041953;28;20442;-60
2021/10/24 10:38:05;;;;;;;;;;;20.60;55.40;;;;;;1040965;28;20312;-60
2021/10/24 10:38:39;;;;;;;;;;;20.60;55.00;;;;;;1043744;28;19990;-60
2021/10/24 10:39:29;;;;;;;;;;;20.60;55.10;;;;;;1043627;28;20683;-60
2021/10/24 10:39:59;;;;;;;;;;;20.60;54.70;;;;;;1042425;28;20055;-60
2021/10/24 10:40:37;;;;;;;;;;;20.60;54.40;;;;;;1044731;28;20411;-61
2021/10/24 10:41:09;;;;;;;;;;;20.60;54.30;;;;;;1047540;28;19956;-60
2021/10/24 10:41:43;;;;;;;;;;;20.60;53.40;;;;;;1047656;28;19952;-60
2021/10/24 10:42:25;;;;;;;;;;;20.60;52.90;;;;;;1047572;28;20051;-60
2021/10/24 10:42:57;;;;;;;;;;;20.60;52.40;;;;;;1047596;28;19958;-60
2021/10/24 10:43:28;;;;;;;;;;;20.60;52.40;;;;;;1047562;28;20057;-60
2021/10/24 10:44:08;;;;;;;;;;;20.60;52.00;;;;;;1047749;28;20009;-60
2021/10/24 10:44:58;;;;;;;;;;;20.60;52.10;;;;;;1047587;28;19960;-60
2021/10/24 10:45:34;;;;;;;;;;;20.60;51.80;;;;;;1047374;28;19952;-60
2021/10/24 10:46:06;;;;;;;;;;;20.50;51.90;;;;;;1044588;28;19979;-61
2021/10/24 10:46:36;;;;;;;;;;;20.60;51.60;;;;;;1045742;28;20046;-60
2021/10/24 10:47:45;;;;;;;;;;;20.60;51.90;;;;;;1047332;28;19952;-60
2021/10/24 10:48:24;;;;;;;;;;;20.50;51.70;;;;;;1041971;28;20468;-59
2021/10/24 10:48:55;;;;;;;;;;;20.60;52.00;;;;;;1043233;28;20046;-60
2021/10/24 10:49:26;;;;;;;;;;;20.60;51.80;;;;;;1042830;28;20338;-60
2021/10/24 10:50:16;;;;;;;;;;;20.60;51.80;;;;;;1044570;28;20352;-60
2021/10/24 10:50:47;;;;;;;;;;;20.60;52.30;;;;;;1046969;28;19956;-61
2021/10/24 10:51:22;;;;;;;;;;;20.60;52.00;;;;;;1047248;28;20112;-60
2021/10/24 10:52:15;;;;;;;;;;;20.60;51.70;;;;;;1043961;28;20046;-61
2021/10/24 10:52:46;;;;;;;;;;;20.70;52.00;;;;;;1044547;28;19955;-61
2021/10/24 10:53:18;;;;;;;;;;;20.70;52.30;;;;;;1044802;28;20326;-61
2021/10/24 10:53:50;;;;;;;;;;;20.70;52.00;;;;;;1044713;28;20078;-59
2021/10/24 10:54:20;;;;;;;;;;;20.70;51.90;;;;;;1044845;28;19971;-61
2021/10/24 10:54:54;;;;;;;;;;;20.80;52.10;;;;;;1044684;28;20411;-60
2021/10/24 10:55:25;;;;;;;;;;;20.80;51.80;;;;;;1044727;28;20043;-60
2021/10/24 10:55:56;;;;;;;;;;;20.80;51.80;;;;;;1042996;28;20010;-60
2021/10/24 10:56:27;;;;;;;;;;;20.80;51.70;;;;;;1041556;28;19958;-60
2021/10/24 10:57:00;;;;;;;;;;;20.90;51.80;;;;;;1044795;28;19963;-60
2021/10/24 10:57:30;;;;;;;;;;;20.90;51.90;;;;;;1044596;28;20003;-59
2021/10/24 10:58:19;;;;;;;;;;;20.80;51.70;;;;;;1043764;28;20004;-59
2021/10/24 10:58:51;;;;;;;;;;;20.80;51.70;;;;;;1044204;28;20014;-59
2021/10/24 10:59:28;;;;;;;;;;;20.80;51.70;;;;;;1044706;28;19962;-59
2021/10/24 11:00:00;;;;;;;;;;;20.80;51.80;;;;;;1044632;28;19995;-60
2021/10/24 11:00:34;;;;;;;;;;;20.80;51.80;;;;;;1041759;28;19956;-59
2021/10/24 11:01:17;;;;;;;;;;;20.80;51.80;;;;;;1044677;28;19963;-58
2021/10/24 11:01:47;;;;;;;;;;;20.80;51.90;;;;;;1044492;28;19968;-57
2021/10/24 11:02:38;;;;;;;;;;;20.80;52.10;;;;;;1044805;28;19979;-60
2021/10/24 11:03:09;;;;;;;;;;;20.80;52.00;;;;;;1039449;28;19971;-59
2021/10/24 11:03:44;;;;;;;;;;;20.70;52.10;;;;;;1040421;28;20043;-59
2021/10/24 11:04:18;;;;;;;;;;;20.80;52.30;;;;;;1040349;28;19956;-60
2021/10/24 11:04:50;;;;;;;;;;;20.70;52.20;;;;;;1041198;28;20010;-59
2021/10/24 11:05:33;;;;;;;;;;;20.70;52.30;;;;;;1044860;28;19960;-59
2021/10/24 11:06:03;;;;;;;;;;;20.70;52.20;;;;;;1039122;28;20126;-59
2021/10/24 11:06:33;;;;;;;;;;;20.70;52.30;;;;;;1040058;28;19971;-59
2021/10/24 11:07:04;;;;;;;;;;;20.70;52.30;;;;;;1039909;28;19991;-58
2021/10/24 11:07:38;;;;;;;;;;;20.70;52.20;;;;;;1040513;28;20631;-59
2021/10/24 11:08:27;;;;;;;;;;;20.70;52.20;;;;;;1044288;28;20041;-60
2021/10/24 11:08:59;;;;;;;;;;;20.80;52.30;;;;;;1044858;28;20003;-60
2021/10/24 11:09:37;;;;;;;;;;;20.70;52.70;;;;;;1044280;28;19959;-60
2021/10/24 11:10:09;;;;;;;;;;;20.70;53.10;;;;;;1044407;28;20460;-60
2021/10/24 11:10:44;;;;;;;;;;;20.80;53.20;;;;;;1044895;28;19956;-60
2021/10/24 11:11:34;;;;;;;;;;;20.70;53.10;;;;;;1044646;28;19960;-60
2021/10/24 11:12:07;;;;;;;;;;;20.70;52.80;;;;;;1044562;28;19964;-60
2021/10/24 11:12:39;;;;;;;;;;;20.70;52.90;;;;;;1045027;28;20325;-60
2021/10/24 11:13:28;;;;;;;;;;;20.70;52.60;;;;;;1044998;28;20326;-60
2021/10/24 11:13:58;;;;;;;;;;;20.70;52.50;;;;;;1044790;28;19955;-61
2021/10/24 11:14:31;;;;;;;;;;;20.70;52.50;;;;;;1044770;28;20311;-61
2021/10/24 11:15:11;;;;;;;;;;;20.70;52.30;;;;;;1044844;28;19956;-61
2021/10/24 11:15:41;;;;;;;;;;;20.70;52.10;;;;;;1044749;28;19956;-61
2021/10/24 11:16:31;;;;;;;;;;;20.70;51.90;;;;;;1041861;28;19960;-61
2021/10/24 11:17:02;;;;;;;;;;;20.70;51.90;;;;;;1043157;28;19959;-61
2021/10/24 11:17:33;;;;;;;;;;;20.70;50.90;;;;;;1044918;28;19956;-61
2021/10/24 11:18:24;;;;;;;;;;;20.70;50.40;;;;;;1044752;28;19970;-61
2021/10/24 11:18:55;;;;;;;;;;;20.70;50.30;;;;;;1044711;28;19967;-61
2021/10/24 11:19:26;;;;;;;;;;;20.70;49.60;;;;;;1040559;28;19964;-61
2021/10/24 11:19:56;;;;;;;;;;;20.70;49.40;;;;;;1040627;28;20417;-61
2021/10/24 11:20:28;;;;;;;;;;;20.70;49.30;;;;;;1040899;28;20325;-61
2021/10/24 11:20:58;;;;;;;;;;;20.70;48.90;;;;;;1041149;28;20321;-60
2021/10/24 11:21:29;;;;;;;;;;;20.70;49.00;;;;;;1044830;28;19959;-61
2021/10/24 11:22:09;;;;;;;;;;;20.80;49.20;;;;;;1044845;28;20043;-61
2021/10/24 11:22:43;;;;;;;;;;;20.80;49.40;;;;;;1044700;28;20401;-61
2021/10/24 11:23:14;;;;;;;;;;;20.70;49.80;;;;;;1044836;28;20429;-61
2021/10/24 11:23:46;;;;;;;;;;;20.70;49.50;;;;;;1044911;28;19952;-61
2021/10/24 11:24:17;;;;;;;;;;;20.70;50.30;;;;;;1044925;28;20425;-61
2021/10/24 11:24:54;;;;;;;;;;;20.70;49.80;;;;;;1044300;28;19962;-61
2021/10/24 11:25:26;;;;;;;;;;;20.70;49.80;;;;;;1044794;28;20410;-62
2021/10/24 11:25:58;;;;;;;;;;;20.80;49.80;;;;;;1043008;28;20430;-60
2021/10/24 11:26:28;;;;;;;;;;;20.70;50.00;;;;;;1043196;28;20334;-61
2021/10/24 11:27:00;;;;;;;;;;;20.70;49.70;;;;;;1044664;28;20058;-61
2021/10/24 11:27:34;;;;;;;;;;;20.70;50.00;;;;;;1040791;28;20018;-61
2021/10/24 11:28:09;;;;;;;;;;;20.70;50.00;;;;;;1042033;28;20014;-61
2021/10/24 11:28:40;;;;;;;;;;;20.70;49.70;;;;;;1044866;28;19952;-60
2021/10/24 11:29:11;;;;;;;;;;;20.80;49.80;;;;;;1044771;28;20406;-61
2021/10/24 11:29:49;;;;;;;;;;;20.80;49.60;;;;;;1044601;28;19960;-61
2021/10/24 11:30:19;;;;;;;;;;;20.70;49.90;;;;;;1044758;28;20098;-61
2021/10/24 11:30:55;;;;;;;;;;;20.80;49.80;;;;;;1044856;28;20014;-61
2021/10/24 11:31:27;;;;;;;;;;;20.80;50.00;;;;;;1044825;28;19959;-62
2021/10/24 11:32:18;;;;;;;;;;;20.80;49.90;;;;;;1044810;28;20421;-61
2021/10/24 11:32:53;;;;;;;;;;;20.80;50.10;;;;;;1044788;28;20010;-62
2021/10/24 11:33:23;;;;;;;;;;;20.80;50.20;;;;;;1044683;28;20322;-55
2021/10/24 11:33:54;;;;;;;;;;;20.80;50.30;;;;;;1044902;28;20010;-65
2021/10/24 11:34:31;;;;;;;;;;;20.90;50.50;;;;;;1044700;28;20065;-65
2021/10/24 11:35:14;;;;;;;;;;;20.80;50.40;;;;;;1044305;28;20318;-64
2021/10/24 11:35:44;;;;;;;;;;;20.80;50.40;;;;;;1044048;28;19956;-64
2021/10/24 11:36:19;;;;;;;;;;;20.80;50.40;;;;;;1041528;28;20327;-66
2021/10/24 11:36:50;;;;;;;;;;;20.80;50.50;;;;;;1040566;28;19956;-65
2021/10/24 11:37:41;;;;;;;;;;;20.80;50.60;;;;;;1043590;28;19960;-65
2021/10/24 11:38:14;;;;;;;;;;;20.80;50.60;;;;;;1044376;28;20089;-65
2021/10/24 11:38:45;;;;;;;;;;;20.80;50.60;;;;;;1044624;28;19987;-65
2021/10/24 11:39:23;;;;;;;;;;;20.80;51.20;;;;;;1044464;28;19960;-64
2021/10/24 11:39:56;;;;;;;;;;;20.80;50.80;;;;;;1044772;28;20465;-63
2021/10/24 11:40:29;;;;;;;;;;;20.80;51.00;;;;;;1041299;28;20029;-63
2021/10/24 11:40:59;;;;;;;;;;;20.80;51.10;;;;;;1040706;28;19956;-65
2021/10/24 11:41:30;;;;;;;;;;;20.80;51.00;;;;;;1040662;28;20014;-63
2021/10/24 11:42:06;;;;;;;;;;;20.80;51.20;;;;;;1040626;28;19964;-63
2021/10/24 11:42:37;;;;;;;;;;;20.80;51.20;;;;;;1044182;28;19956;-63
2021/10/24 11:43:21;;;;;;;;;;;20.80;51.50;;;;;;1044804;28;19960;-63
2021/10/24 11:44:02;;;;;;;;;;;20.80;51.40;;;;;;1044845;28;19963;-63
2021/10/24 11:44:33;;;;;;;;;;;20.80;51.60;;;;;;1044559;28;19960;-64
2021/10/24 11:45:17;;;;;;;;;;;20.80;51.20;;;;;;1044832;28;20046;-63
2021/10/24 11:45:55;;;;;;;;;;;20.80;51.30;;;;;;1044103;28;19966;-64
2021/10/24 11:46:25;;;;;;;;;;;20.80;51.10;;;;;;1042227;28;19960;-63
2021/10/24 11:47:09;;;;;;;;;;;20.70;51.00;;;;;;1041073;28;20373;-63
2021/10/24 11:47:55;;;;;;;;;;;20.70;51.00;;;;;;1044097;28;20014;-63
2021/10/24 11:48:26;;;;;;;;;;;20.70;50.90;;;;;;1044029;28;19956;-63
2021/10/24 11:49:02;;;;;;;;;;;20.70;50.70;;;;;;1044823;28;20002;-64
2021/10/24 11:49:49;;;;;;;;;;;20.70;50.80;;;;;;1044490;28;20422;-63
2021/10/24 11:50:33;;;;;;;;;;;20.70;50.40;;;;;;1044648;28;19981;-63
2021/10/24 11:51:08;;;;;;;;;;;20.70;50.10;;;;;;1044647;28;19978;-63
2021/10/24 11:51:48;;;;;;;;;;;20.80;49.80;;;;;;1044727;28;20045;-63
2021/10/24 11:52:25;;;;;;;;;;;20.80;49.10;;;;;;1044777;28;19960;-63
2021/10/24 11:52:59;;;;;;;;;;;20.80;48.70;;;;;;1040666;28;19960;-63
2021/10/24 11:53:32;;;;;;;;;;;20.80;48.50;;;;;;1040658;28;20442;-63
2021/10/24 11:54:07;;;;;;;;;;;20.80;48.10;;;;;;1040647;28;19956;-64
2021/10/24 11:54:37;;;;;;;;;;;20.80;48.40;;;;;;1043266;28;19964;-64
2021/10/24 11:55:10;;;;;;;;;;;20.80;48.00;;;;;;1044758;28;19960;-64
2021/10/24 11:55:41;;;;;;;;;;;20.80;48.80;;;;;;1044709;28;20042;-63
2021/10/24 11:56:17;;;;;;;;;;;20.70;48.90;;;;;;1041592;28;19964;-63
2021/10/24 11:57:26;;;;;;;;;;;20.70;49.10;;;;;;1040595;28;19972;-63
2021/10/24 11:58:04;;;;;;;;;;;20.70;48.50;;;;;;1043934;28;20009;-64
2021/10/24 11:58:45;;;;;;;;;;;20.70;49.10;;;;;;1040711;28;20105;-63
2021/10/24 11:59:36;;;;;;;;;;;20.70;49.40;;;;;;1041545;28;20322;-63
2021/10/24 12:00:21;;;;;;;;;;;20.60;49.80;;;;;;1044521;28;20437;-63
2021/10/24 12:01:02;;;;;;;;;;;20.70;49.20;;;;;;1044745;28;19952;-63
2021/10/24 12:01:33;;;;;;;;;;;20.70;49.50;;;;;;1044769;28;19952;-63
2021/10/24 12:02:07;;;;;;;;;;;20.70;49.90;;;;;;1044632;28;19956;-63
2021/10/24 12:02:52;;;;;;;;;;;20.70;49.50;;;;;;1044652;28;19959;-64
2021/10/24 12:03:24;;;;;;;;;;;20.70;50.00;;;;;;1044245;28;20447;-64
2021/10/24 12:03:56;;;;;;;;;;;20.70;49.80;;;;;;1044262;28;20429;-63
2021/10/24 12:04:27;;;;;;;;;;;20.70;49.70;;;;;;1044523;28;19978;-63
2021/10/24 12:04:57;;;;;;;;;;;20.70;49.80;;;;;;1044767;28;19997;-63
2021/10/24 12:05:29;;;;;;;;;;;20.70;49.70;;;;;;1044739;28;20440;-63
2021/10/24 12:06:00;;;;;;;;;;;20.80;50.00;;;;;;1042667;28;20058;-64
2021/10/24 12:06:49;;;;;;;;;;;20.80;49.70;;;;;;1042066;28;20074;-64
2021/10/24 12:07:19;;;;;;;;;;;20.80;49.80;;;;;;1043553;28;19955;-64
2021/10/24 12:07:51;;;;;;;;;;;20.80;49.90;;;;;;1044619;28;19956;-64
2021/10/24 12:08:41;;;;;;;;;;;20.80;49.90;;;;;;1044448;28;19959;-64
2021/10/24 12:09:14;;;;;;;;;;;20.80;50.00;;;;;;1044655;28;20046;-63
2021/10/24 12:09:45;;;;;;;;;;;20.80;49.70;;;;;;1044506;28;19952;-64
2021/10/24 12:10:15;;;;;;;;;;;20.80;49.90;;;;;;1044607;28;20476;-64
2021/10/24 12:10:50;;;;;;;;;;;20.90;49.60;;;;;;1044599;28;19959;-64
2021/10/24 12:11:40;;;;;;;;;;;20.80;49.80;;;;;;1044614;28;20037;-63
2021/10/24 12:12:19;;;;;;;;;;;20.90;49.90;;;;;;1044710;28;19951;-64
2021/10/24 12:12:50;;;;;;;;;;;20.90;50.10;;;;;;1044506;28;20014;-64
2021/10/24 12:13:37;;;;;;;;;;;20.80;50.00;;;;;;1044590;28;20002;-64
2021/10/24 12:14:07;;;;;;;;;;;20.80;50.00;;;;;;1044906;28;19954;-64
2021/10/24 12:14:47;;;;;;;;;;;20.80;50.20;;;;;;1044365;28;20451;-64
2021/10/24 12:15:33;;;;;;;;;;;20.80;50.20;;;;;;1044586;28;19956;-64
2021/10/24 12:16:05;;;;;;;;;;;20.70;50.30;;;;;;1041369;28;20086;-64
2021/10/24 12:16:43;;;;;;;;;;;20.70;50.40;;;;;;1044463;28;19956;-64
2021/10/24 12:17:14;;;;;;;;;;;20.70;50.40;;;;;;1044114;28;19967;-64
2021/10/24 12:17:44;;;;;;;;;;;20.70;50.30;;;;;;1044638;28;19959;-64
2021/10/24 12:18:15;;;;;;;;;;;20.70;50.50;;;;;;1044573;28;20341;-64
2021/10/24 12:18:46;;;;;;;;;;;20.70;50.40;;;;;;1044627;28;20006;-64
2021/10/24 12:19:19;;;;;;;;;;;20.70;50.40;;;;;;1044569;28;20440;-64
2021/10/24 12:20:06;;;;;;;;;;;20.70;50.60;;;;;;1044446;28;20002;-64
2021/10/24 12:20:36;;;;;;;;;;;20.70;50.40;;;;;;1044696;28;19960;-64
2021/10/24 12:21:07;;;;;;;;;;;20.80;50.60;;;;;;1044462;28;19963;-64
2021/10/24 12:21:38;;;;;;;;;;;20.80;50.50;;;;;;1044604;28;19960;-64
2021/10/24 12:22:08;;;;;;;;;;;20.80;51.00;;;;;;1044642;28;19960;-63
2021/10/24 12:22:40;;;;;;;;;;;20.80;50.40;;;;;;1044578;28;19963;-64
2021/10/24 12:23:14;;;;;;;;;;;20.80;50.40;;;;;;1044545;28;19971;-64
2021/10/24 12:23:45;;;;;;;;;;;20.90;50.50;;;;;;1044550;28;19967;-63
2021/10/24 12:24:20;;;;;;;;;;;20.90;50.40;;;;;;1044672;28;20465;-63
2021/10/24 12:24:50;;;;;;;;;;;20.90;50.40;;;;;;1044536;28;19964;-63
2021/10/24 12:25:38;;;;;;;;;;;20.90;50.50;;;;;;1044477;28;19956;-64
2021/10/24 12:26:09;;;;;;;;;;;20.90;50.50;;;;;;1044562;28;19952;-63
2021/10/24 12:26:40;;;;;;;;;;;20.90;50.50;;;;;;1044595;28;19956;-63
2021/10/24 12:27:17;;;;;;;;;;;20.90;50.70;;;;;;1044501;28;19960;-63
2021/10/24 12:28:06;;;;;;;;;;;20.90;50.60;;;;;;1044585;28;20486;-63
2021/10/24 12:28:39;;;;;;;;;;;20.90;50.40;;;;;;1044632;28;19959;-63
2021/10/24 12:29:17;;;;;;;;;;;20.90;50.80;;;;;;1044471;28;19956;-63